createdAt,value
2019-04-14T00:00:42.652Z,46.35
2019-04-14T00:03:17.273Z,43.45
2019-04-14T00:05:48.182Z,42.23
2019-04-14T00:08:17.717Z,46.13
2019-04-14T00:10:46.983Z,44.05
2019-04-14T00:13:17.404Z,45.67
2019-04-14T00:15:50.312Z,44.05
2019-04-14T00:18:18.563Z,44.65
2019-04-14T00:20:49.159Z,42.60
2019-04-14T00:23:23.666Z,44.48
2019-04-14T00:25:52.906Z,45.20
2019-04-14T00:28:22.867Z,45.70
2019-04-14T00:30:53.324Z,43.70
2019-04-14T00:33:28.026Z,46.65
2019-04-14T00:36:06.477Z,45.75
2019-04-14T00:38:37.383Z,49.58
2019-04-14T00:41:14.434Z,49.50
2019-04-14T00:43:48.491Z,49.03
2019-04-14T00:46:25.445Z,46.10
2019-04-14T00:48:55.954Z,47.13
2019-04-14T00:51:26.513Z,50.40
2019-04-14T00:53:55.952Z,47.43
2019-04-14T00:56:25.838Z,49.95
2019-04-14T00:58:56.018Z,50.67
2019-04-14T01:01:26.267Z,47.55
2019-04-14T01:03:56.992Z,45.88
2019-04-14T01:06:27.199Z,49.30
2019-04-14T01:08:57.553Z,47.83
2019-04-14T01:11:27.120Z,50.70
2019-04-14T01:13:57.162Z,53.63
2019-04-14T01:16:27.854Z,47.90
2019-04-14T01:18:58.014Z,47.48
2019-04-14T01:21:28.448Z,44.23
2019-04-14T01:23:58.821Z,48.50
2019-04-14T01:26:28.898Z,47.15
2019-04-14T01:28:59.349Z,46.83
2019-04-14T01:31:29.574Z,46.80
2019-04-14T01:33:59.698Z,48.68
2019-04-14T01:36:29.846Z,45.75
2019-04-14T01:39:00.252Z,45.92
2019-04-14T01:41:32.433Z,47.53
2019-04-14T01:44:02.461Z,46.60
2019-04-14T01:46:33.076Z,48.15
2019-04-14T01:49:03.020Z,44.05
2019-04-14T01:51:37.424Z,45.30
2019-04-14T01:54:17.542Z,50.28
2019-04-14T01:57:04.978Z,43.83
2019-04-14T01:59:34.854Z,46.33
2019-04-14T02:02:05.141Z,48.23
2019-04-14T02:04:35.528Z,43.73
2019-04-14T02:07:05.890Z,40.48
2019-04-14T02:09:35.752Z,45.45
2019-04-14T02:12:06.163Z,45.58
2019-04-14T02:14:36.468Z,43.52
2019-04-14T02:17:07.402Z,41.75
2019-04-14T02:19:37.194Z,44.38
2019-04-14T02:22:07.244Z,47.20
2019-04-14T02:24:37.424Z,44.35
2019-04-14T02:27:07.721Z,41.68
2019-04-14T02:29:38.277Z,46.90
2019-04-14T02:32:37.278Z,46.45
2019-04-14T02:35:07.493Z,47.33
2019-04-14T02:37:33.780Z,51.73
2019-04-14T02:40:08.933Z,47.15
2019-04-14T02:45:08.584Z,45.52
2019-04-14T02:50:07.993Z,42.10
2019-04-14T02:52:47.228Z,40.75
2019-04-14T02:55:31.771Z,42.70
2019-04-14T03:00:19.682Z,49.08
2019-04-14T03:02:44.233Z,44.80
2019-04-14T03:05:19.620Z,46.05
2019-04-14T03:07:54.469Z,44.48
2019-04-14T03:13:01.478Z,39.20
2019-04-14T03:15:25.384Z,45.80
2019-04-14T03:20:48.301Z,44.60
2019-04-14T03:23:34.817Z,40.43
2019-04-14T03:25:59.424Z,46.55
2019-04-14T03:28:38.745Z,39.63
2019-04-14T03:34:07.038Z,39.88
2019-04-14T03:36:43.710Z,39.15
2019-04-14T03:38:59.596Z,40.48
2019-04-14T03:41:16.492Z,42.80
2019-04-14T03:43:38.843Z,43.05
2019-04-14T03:46:28.811Z,39.13
2019-04-14T03:53:45.781Z,39.38
2019-04-14T03:56:02.422Z,42.10
2019-04-14T03:58:29.177Z,45.38
2019-04-14T04:00:59.664Z,37.93
2019-04-14T04:03:30.270Z,40.90
2019-04-14T04:06:00.690Z,39.35
2019-04-14T04:08:31.194Z,35.10
2019-04-14T04:11:02.009Z,35.70
2019-04-14T04:13:32.745Z,38.13
2019-04-14T04:16:15.890Z,40.17
2019-04-14T04:18:57.289Z,41.53
2019-04-14T04:21:18.399Z,42.10
2019-04-14T04:23:55.407Z,38.33
2019-04-14T04:26:36.490Z,38.75
2019-04-14T04:29:07.287Z,35.35
2019-04-14T04:31:38.035Z,36.23
2019-04-14T04:34:12.267Z,33.98
2019-04-14T04:36:55.295Z,36.40
2019-04-14T04:39:35.287Z,37.00
2019-04-14T04:42:03.348Z,42.35
2019-04-14T04:44:33.363Z,37.48
2019-04-14T04:47:03.506Z,38.08
2019-04-14T04:49:34.109Z,33.33
2019-04-14T04:52:04.094Z,38.70
2019-04-14T04:54:34.235Z,35.33
2019-04-14T04:57:04.580Z,35.58
2019-04-14T04:59:34.294Z,34.50
2019-04-14T05:02:04.730Z,35.68
2019-04-14T05:04:35.098Z,35.38
2019-04-14T05:07:05.571Z,35.68
2019-04-14T05:09:36.587Z,35.10
2019-04-14T05:12:13.362Z,35.95
2019-04-14T05:15:03.346Z,32.93
2019-04-14T05:17:37.218Z,34.75
2019-04-14T05:20:07.381Z,35.90
2019-04-14T05:22:37.553Z,34.90
2019-04-14T05:25:07.967Z,36.23
2019-04-14T05:27:38.659Z,32.40
2019-04-14T05:30:09.026Z,34.50
2019-04-14T05:32:39.092Z,33.92
2019-04-14T05:35:09.657Z,32.48
2019-04-14T05:37:40.062Z,31.70
2019-04-14T05:40:10.283Z,35.03
2019-04-14T05:42:40.722Z,36.08
2019-04-14T05:45:11.127Z,28.92
2019-04-14T05:47:41.461Z,30.20
2019-04-14T05:50:11.667Z,31.20
2019-04-14T05:52:41.076Z,30.00
2019-04-14T05:55:11.147Z,28.02
2019-04-14T05:57:41.644Z,33.48
2019-04-14T06:00:12.747Z,32.73
2019-04-14T06:02:44.119Z,32.08
2019-04-14T06:05:14.469Z,24.80
2019-04-14T06:07:43.612Z,29.12
2019-04-14T06:10:12.864Z,27.75
2019-04-14T06:12:41.878Z,32.53
2019-04-14T06:15:11.488Z,30.95
2019-04-14T06:17:40.833Z,29.85
2019-04-14T06:20:10.234Z,31.10
2019-04-14T06:22:39.378Z,23.35
2019-04-14T06:25:09.747Z,35.58
2019-04-14T06:27:39.018Z,33.35
2019-04-14T06:30:09.857Z,25.72
2019-04-14T06:32:43.175Z,25.45
2019-04-14T06:35:19.634Z,24.92
2019-04-14T06:38:05.963Z,26.62
2019-04-14T06:40:36.523Z,25.75
2019-04-14T06:43:06.043Z,24.85
2019-04-14T06:45:35.302Z,26.12
2019-04-14T06:48:04.917Z,24.80
2019-04-14T06:50:34.390Z,25.27
2019-04-14T06:53:03.683Z,23.62
2019-04-14T06:55:35.697Z,26.80
2019-04-14T06:58:05.007Z,25.95
2019-04-14T07:00:34.363Z,22.15
2019-04-14T07:03:03.467Z,26.37
2019-04-14T07:05:32.880Z,24.90
2019-04-14T07:08:02.375Z,25.35
2019-04-14T07:10:31.804Z,24.05
2019-04-14T07:13:00.773Z,27.00
2019-04-14T07:15:30.051Z,24.57
2019-04-14T07:17:59.306Z,24.37
2019-04-14T07:20:28.602Z,29.63
2019-04-14T07:22:58.052Z,24.27
2019-04-14T07:25:27.309Z,24.57
2019-04-14T07:27:59.651Z,22.45
2019-04-14T07:30:36.768Z,23.20
2019-04-14T07:33:07.481Z,18.92
2019-04-14T07:35:45.241Z,24.85
2019-04-14T07:38:15.923Z,21.35
2019-04-14T07:40:46.707Z,25.52
2019-04-14T07:43:17.405Z,21.20
2019-04-14T07:45:57.070Z,26.60
2019-04-14T07:48:33.568Z,23.42
2019-04-14T07:51:16.175Z,24.20
2019-04-14T07:53:46.827Z,29.00
2019-04-14T07:56:31.020Z,23.60
2019-04-14T07:59:18.314Z,19.23
2019-04-14T08:01:55.737Z,26.48
2019-04-14T08:04:26.726Z,19.17
2019-04-14T08:06:57.407Z,22.65
2019-04-14T08:09:36.699Z,25.00
2019-04-14T08:12:06.623Z,21.60
2019-04-14T08:14:36.003Z,20.52
2019-04-14T08:17:05.415Z,22.58
2019-04-14T08:19:34.516Z,17.87
2019-04-14T08:22:04.126Z,20.48
2019-04-14T08:24:33.416Z,19.98
2019-04-14T08:27:02.634Z,16.82
2019-04-14T08:29:32.033Z,23.42
2019-04-14T08:32:01.717Z,20.65
2019-04-14T08:34:31.476Z,23.87
2019-04-14T08:37:00.760Z,20.30
2019-04-14T08:39:29.870Z,19.52
2019-04-14T08:42:06.933Z,24.70
2019-04-14T08:44:40.440Z,18.50
2019-04-14T08:47:13.903Z,22.40
2019-04-14T08:49:49.349Z,21.62
2019-04-14T08:52:32.930Z,20.45
2019-04-14T08:55:06.050Z,23.10
2019-04-14T08:57:48.581Z,19.98
2019-04-14T09:00:19.290Z,20.97
2019-04-14T09:03:06.152Z,20.70
2019-04-14T09:05:53.307Z,25.60
2019-04-14T09:08:24.459Z,18.87
2019-04-14T09:10:55.243Z,24.10
2019-04-14T09:13:24.452Z,17.65
2019-04-14T09:15:53.645Z,18.85
2019-04-14T09:18:23.922Z,20.43
2019-04-14T09:20:53.198Z,24.60
2019-04-14T09:23:22.739Z,19.32
2019-04-14T09:25:52.150Z,21.73
2019-04-14T09:28:21.243Z,23.27
2019-04-14T09:30:50.639Z,20.12
2019-04-14T09:33:20.117Z,22.37
2019-04-14T09:35:49.404Z,20.57
2019-04-14T09:38:18.685Z,19.73
2019-04-14T09:40:47.994Z,22.55
2019-04-14T09:43:17.154Z,22.85
2019-04-14T09:45:46.359Z,16.97
2019-04-14T09:48:15.483Z,18.02
2019-04-14T09:50:44.935Z,19.02
2019-04-14T09:53:13.907Z,20.50
2019-04-14T09:55:43.324Z,19.45
2019-04-14T09:58:12.610Z,17.50
2019-04-14T10:00:41.750Z,19.98
2019-04-14T10:03:12.355Z,24.15
2019-04-14T10:05:41.882Z,17.92
2019-04-14T10:08:10.950Z,19.80
2019-04-14T10:10:41.720Z,21.05
2019-04-14T10:13:11.406Z,20.37
2019-04-14T10:15:41.148Z,23.65
2019-04-14T10:18:11.244Z,22.45
2019-04-14T10:20:40.759Z,20.88
2019-04-14T10:23:10.206Z,19.48
2019-04-14T10:25:39.645Z,19.75
2019-04-14T10:28:08.938Z,22.25
2019-04-14T10:30:38.254Z,21.50
2019-04-14T10:33:07.673Z,18.25
2019-04-14T10:35:37.512Z,27.30
2019-04-14T10:38:07.791Z,19.62
2019-04-14T10:40:37.419Z,24.47
2019-04-14T10:43:07.810Z,15.83
2019-04-14T10:45:36.800Z,18.80
2019-04-14T10:48:06.048Z,21.23
2019-04-14T10:50:35.015Z,21.27
2019-04-14T10:53:04.459Z,19.62
2019-04-14T10:55:33.705Z,17.85
2019-04-14T10:58:03.316Z,17.98
2019-04-14T11:00:32.681Z,18.30
2019-04-14T11:03:02.221Z,20.45
2019-04-14T11:05:32.774Z,23.45
2019-04-14T11:08:02.361Z,16.60
2019-04-14T11:10:31.824Z,20.02
2019-04-14T11:13:01.242Z,22.13
2019-04-14T11:15:30.197Z,19.73
2019-04-14T11:17:59.305Z,22.10
2019-04-14T11:20:28.900Z,17.85
2019-04-14T11:23:03.461Z,20.37
2019-04-14T11:25:29.558Z,18.80
2019-04-14T11:27:58.683Z,19.52
2019-04-14T11:30:28.285Z,18.17
2019-04-14T11:33:05.299Z,18.10
2019-04-14T11:35:35.691Z,15.23
2019-04-14T11:38:18.197Z,15.13
2019-04-14T11:40:49.151Z,19.57
2019-04-14T11:43:18.521Z,19.30
2019-04-14T11:45:47.631Z,15.93
2019-04-14T11:48:16.638Z,15.70
2019-04-14T11:50:45.822Z,17.27
2019-04-14T11:53:16.170Z,15.05
2019-04-14T11:55:45.240Z,14.40
2019-04-14T11:58:14.394Z,29.55
2019-04-14T12:00:57.046Z,15.70
2019-04-14T12:03:33.732Z,19.73
2019-04-14T12:06:07.352Z,17.17
2019-04-14T12:08:54.567Z,13.55
2019-04-14T12:11:24.227Z,14.73
2019-04-14T12:13:54.095Z,13.62
2019-04-14T12:16:23.296Z,15.23
2019-04-14T12:18:52.460Z,15.65
2019-04-14T12:21:22.044Z,18.07
2019-04-14T12:23:51.438Z,18.85
2019-04-14T12:26:20.914Z,19.25
2019-04-14T12:28:51.555Z,17.20
2019-04-14T12:31:21.862Z,16.42
2019-04-14T12:33:51.502Z,15.53
2019-04-14T12:36:21.585Z,11.85
2019-04-14T12:38:51.028Z,16.02
2019-04-14T12:41:31.063Z,17.02
2019-04-14T12:44:01.940Z,13.98
2019-04-14T12:46:41.748Z,16.27
2019-04-14T12:49:15.154Z,12.93
2019-04-14T12:51:55.323Z,10.72
2019-04-14T12:54:25.870Z,18.00
2019-04-14T12:56:55.324Z,16.85
2019-04-14T12:59:24.975Z,16.93
2019-04-14T13:02:14.109Z,14.60
2019-04-14T13:04:43.823Z,11.90
2019-04-14T13:07:12.864Z,14.78
2019-04-14T13:09:42.222Z,12.78
2019-04-14T13:12:11.341Z,18.42
2019-04-14T13:14:40.304Z,12.95
2019-04-14T13:17:09.476Z,12.75
2019-04-14T13:19:38.504Z,13.20
2019-04-14T13:22:07.645Z,12.45
2019-04-14T13:24:37.085Z,12.13
2019-04-14T13:27:06.523Z,12.07
2019-04-14T13:29:35.935Z,12.95
2019-04-14T13:32:05.738Z,13.72
2019-04-14T13:34:35.346Z,12.37
2019-04-14T13:37:04.610Z,11.93
2019-04-14T13:39:34.058Z,12.58
2019-04-14T13:42:03.522Z,13.18
2019-04-14T13:44:32.772Z,15.68
2019-04-14T13:47:02.037Z,13.55
2019-04-14T13:49:31.493Z,10.88
2019-04-14T13:52:00.899Z,12.25
2019-04-14T13:54:30.525Z,11.75
2019-04-14T13:56:59.993Z,14.80
2019-04-14T13:59:29.393Z,12.98
2019-04-14T14:01:58.743Z,13.15
2019-04-14T14:04:28.288Z,16.25
2019-04-14T14:06:57.714Z,13.65
2019-04-14T14:09:27.329Z,11.53
2019-04-14T14:12:14.907Z,17.95
2019-04-14T14:14:57.572Z,12.25
2019-04-14T14:17:45.462Z,11.83
2019-04-14T14:20:16.401Z,12.33
2019-04-14T14:23:00.062Z,12.23
2019-04-14T14:25:32.937Z,14.93
2019-04-14T14:28:02.406Z,11.93
2019-04-14T14:30:31.613Z,13.05
2019-04-14T14:33:00.469Z,13.13
2019-04-14T14:35:32.616Z,10.55
2019-04-14T14:38:01.870Z,10.60
2019-04-14T14:40:32.211Z,13.48
2019-04-14T14:43:01.404Z,9.70
2019-04-14T14:45:48.418Z,9.75
2019-04-14T14:48:28.114Z,11.63
2019-04-14T14:51:04.522Z,9.95
2019-04-14T14:53:33.799Z,11.85
2019-04-14T14:56:02.816Z,8.85
2019-04-14T14:58:32.230Z,9.08
2019-04-14T15:01:01.796Z,12.20
2019-04-14T15:03:31.159Z,9.88
2019-04-14T15:06:00.451Z,10.13
2019-04-14T15:08:29.418Z,8.90
2019-04-14T15:10:58.487Z,9.55
2019-04-14T15:13:27.285Z,7.85
2019-04-14T15:15:56.428Z,8.88
2019-04-14T15:18:25.711Z,8.60
2019-04-14T15:20:55.123Z,11.03
2019-04-14T15:23:25.460Z,9.45
2019-04-14T15:25:55.135Z,10.88
2019-04-14T15:28:24.550Z,9.40
2019-04-14T15:30:53.874Z,9.08
2019-04-14T15:33:22.953Z,8.55
2019-04-14T15:35:51.815Z,10.65
2019-04-14T15:38:20.901Z,10.85
2019-04-14T15:40:50.680Z,8.48
2019-04-14T15:43:22.792Z,9.88
2019-04-14T15:45:51.974Z,9.25
2019-04-14T15:48:21.742Z,14.55
2019-04-14T15:50:51.029Z,12.13
2019-04-14T15:53:20.775Z,14.58
2019-04-14T15:55:50.365Z,8.80
2019-04-14T15:58:30.045Z,13.05
2019-04-14T16:01:16.940Z,10.00
2019-04-14T16:03:54.578Z,12.05
2019-04-14T16:06:25.570Z,12.88
2019-04-14T16:08:56.484Z,10.65
2019-04-14T16:11:27.342Z,8.75
2019-04-14T16:14:13.431Z,12.00
2019-04-14T16:16:57.927Z,9.20
2019-04-14T16:19:35.101Z,9.13
2019-04-14T16:22:04.476Z,9.70
2019-04-14T16:24:33.552Z,9.75
2019-04-14T16:27:10.658Z,10.13
2019-04-14T16:29:42.049Z,10.82
2019-04-14T16:32:22.298Z,9.05
2019-04-14T16:34:56.331Z,9.50
2019-04-14T16:37:26.218Z,13.43
2019-04-14T16:39:55.968Z,10.30
2019-04-14T16:42:25.412Z,9.85
2019-04-14T16:44:54.693Z,12.45
2019-04-14T16:47:24.674Z,9.73
2019-04-14T16:49:54.859Z,12.05
2019-04-14T16:52:26.207Z,9.50
2019-04-14T16:54:57.252Z,9.43
2019-04-14T16:57:45.790Z,7.95
2019-04-14T17:00:17.893Z,10.80
2019-04-14T17:02:50.101Z,10.13
2019-04-14T17:05:19.475Z,10.15
2019-04-14T17:07:49.292Z,7.87
2019-04-14T17:10:19.519Z,8.15
2019-04-14T17:12:50.054Z,10.28
2019-04-14T17:15:27.042Z,7.90
2019-04-14T17:18:14.603Z,10.25
2019-04-14T17:21:04.472Z,8.03
2019-04-14T17:23:38.894Z,15.53
2019-04-14T17:26:14.364Z,9.48
2019-04-14T17:29:03.345Z,13.70
2019-04-14T17:31:52.176Z,10.63
2019-04-14T17:34:35.904Z,13.32
2019-04-14T17:37:19.659Z,9.53
2019-04-14T17:40:05.947Z,11.63
2019-04-14T17:42:37.559Z,9.93
2019-04-14T17:45:15.517Z,9.38
2019-04-14T17:47:51.225Z,11.20
2019-04-14T17:50:40.644Z,10.75
2019-04-14T17:53:04.436Z,8.75
2019-04-14T17:55:49.903Z,10.72
2019-04-14T17:58:19.882Z,11.20
2019-04-14T18:00:56.938Z,11.50
2019-04-14T18:03:44.379Z,11.05
2019-04-14T18:06:24.863Z,9.48
2019-04-14T18:09:02.244Z,11.08
2019-04-14T18:11:42.287Z,15.13
2019-04-14T18:14:30.031Z,13.10
2019-04-14T18:17:10.067Z,11.20
2019-04-14T18:19:50.372Z,9.85
2019-04-14T18:22:20.600Z,11.03
2019-04-14T18:24:50.555Z,10.40
2019-04-14T18:27:20.637Z,16.17
2019-04-14T18:29:57.558Z,12.15
2019-04-14T18:32:31.688Z,9.53
2019-04-14T18:35:05.574Z,10.45
2019-04-14T18:37:49.926Z,9.80
2019-04-14T18:40:23.708Z,11.48
2019-04-14T18:42:54.678Z,7.45
2019-04-14T18:45:28.790Z,10.10
2019-04-14T18:48:06.533Z,13.18
2019-04-14T18:50:40.786Z,10.53
2019-04-14T18:53:27.193Z,9.58
2019-04-14T18:56:04.015Z,8.75
2019-04-14T18:58:40.848Z,9.90
2019-04-14T19:01:18.193Z,11.45
2019-04-14T19:03:48.128Z,10.25
2019-04-14T19:06:18.246Z,12.53
2019-04-14T19:08:50.320Z,10.68
2019-04-14T19:11:25.257Z,13.25
2019-04-14T19:13:56.731Z,10.08
2019-04-14T19:16:38.601Z,10.95
2019-04-14T19:19:00.149Z,11.57
2019-04-14T19:21:30.792Z,13.98
2019-04-14T19:24:01.266Z,10.75
2019-04-14T19:26:31.472Z,10.53
2019-04-14T19:29:01.081Z,12.60
2019-04-14T19:31:30.541Z,9.13
2019-04-14T19:33:59.683Z,10.53
2019-04-14T19:36:28.772Z,8.28
2019-04-14T19:38:58.198Z,9.53
2019-04-14T19:41:27.514Z,10.10
2019-04-14T19:43:57.261Z,11.12
2019-04-14T19:46:26.389Z,11.30
2019-04-14T19:48:55.658Z,11.43
2019-04-14T19:51:25.192Z,11.18
2019-04-14T19:53:54.523Z,9.53
2019-04-14T19:56:23.651Z,8.95
2019-04-14T19:58:54.313Z,11.00
2019-04-14T20:01:25.262Z,9.98
2019-04-14T20:03:55.170Z,9.25
2019-04-14T20:06:25.061Z,10.53
2019-04-14T20:08:58.324Z,9.03
2019-04-14T20:11:28.487Z,12.40
2019-04-14T20:13:58.651Z,10.10
2019-04-14T20:16:48.321Z,9.65
2019-04-14T20:19:24.897Z,11.18
2019-04-14T20:22:00.004Z,10.70
2019-04-14T20:24:33.887Z,13.72
2019-04-14T20:27:17.364Z,13.85
2019-04-14T20:30:04.738Z,13.60
2019-04-14T20:32:35.483Z,15.80
2019-04-14T20:35:05.879Z,11.33
2019-04-14T20:37:35.017Z,13.53
2019-04-14T20:40:05.235Z,14.83
2019-04-14T20:42:34.058Z,11.45
2019-04-14T20:45:03.249Z,12.07
2019-04-14T20:47:32.347Z,10.25
2019-04-14T20:50:01.349Z,11.57
2019-04-14T20:52:30.329Z,11.78
2019-04-14T20:54:59.321Z,11.05
2019-04-14T20:57:28.733Z,13.80
2019-04-14T20:59:58.441Z,11.90
2019-04-14T21:02:32.134Z,12.28
2019-04-14T21:05:26.227Z,12.05
2019-04-14T21:07:56.746Z,10.78
2019-04-14T21:10:27.496Z,13.05
2019-04-14T21:13:09.780Z,11.90
2019-04-14T21:15:43.331Z,12.33
2019-04-14T21:18:13.797Z,18.37
2019-04-14T21:20:53.459Z,10.28
2019-04-14T21:23:30.476Z,13.80
2019-04-14T21:26:10.685Z,10.03
2019-04-14T21:29:00.080Z,15.35
2019-04-14T21:31:43.315Z,14.55
2019-04-14T21:34:17.707Z,9.83
2019-04-14T21:36:56.899Z,13.22
2019-04-14T21:39:45.232Z,13.90
2019-04-14T21:42:15.452Z,12.00
2019-04-14T21:44:44.406Z,12.40
2019-04-14T21:47:13.714Z,12.95
2019-04-14T21:49:44.846Z,17.30
2019-04-14T21:52:21.406Z,13.38
2019-04-14T21:54:50.510Z,12.33
2019-04-14T21:57:23.795Z,12.75
2019-04-14T22:00:10.711Z,11.85
2019-04-14T22:02:59.890Z,12.73
2019-04-14T22:05:37.054Z,11.68
2019-04-14T22:08:25.143Z,15.55
2019-04-14T22:10:54.935Z,13.28
2019-04-14T22:13:24.767Z,9.38
2019-04-14T22:15:54.036Z,15.55
2019-04-14T22:18:23.408Z,10.95
2019-04-14T22:20:52.932Z,10.50
2019-04-14T22:23:21.998Z,13.70
2019-04-14T22:25:51.189Z,12.07
2019-04-14T22:28:20.479Z,10.45
2019-04-14T22:30:52.580Z,13.45
2019-04-14T22:33:21.777Z,11.78
2019-04-14T22:35:51.156Z,11.90
2019-04-14T22:38:20.424Z,10.98
2019-04-14T22:40:49.499Z,14.35
2019-04-14T22:43:18.536Z,10.93
2019-04-14T22:45:47.641Z,28.80
2019-04-14T22:48:17.073Z,11.97
2019-04-14T22:50:46.222Z,12.40
2019-04-14T22:53:15.135Z,15.48
2019-04-14T22:55:43.847Z,13.15
2019-04-14T22:58:13.255Z,12.82
2019-04-14T23:00:49.985Z,12.63
2019-04-14T23:03:37.134Z,14.95
2019-04-14T23:06:22.936Z,14.10
2019-04-14T23:08:53.368Z,13.83
2019-04-14T23:11:44.472Z,11.20
2019-04-14T23:14:18.352Z,14.15
2019-04-14T23:16:57.888Z,12.63
2019-04-14T23:19:37.612Z,13.38
2019-04-14T23:22:09.915Z,17.52
2019-04-14T23:24:52.025Z,14.65
2019-04-14T23:27:21.413Z,16.20
2019-04-14T23:29:50.410Z,11.05
2019-04-14T23:32:19.496Z,18.00
2019-04-14T23:34:48.767Z,12.23
2019-04-14T23:37:18.208Z,13.18
2019-04-14T23:39:47.205Z,15.90
2019-04-14T23:42:16.041Z,20.37
2019-04-14T23:44:45.234Z,15.05
2019-04-14T23:47:14.626Z,12.15
2019-04-14T23:49:43.795Z,13.32
2019-04-14T23:52:13.256Z,14.10
2019-04-14T23:54:42.504Z,14.55
2019-04-14T23:57:11.603Z,12.93
2019-04-14T23:59:40.800Z,19.25
